< < Back
Terminal Aerodrome Forecast


Current Version              Previous Versions:   1  2  3  4  5  6  7  8  9  

Terminal Aerodrome Forecast

179
FTUS44 KMRX 241720
TAFTYS
TAF
KTYS 241720Z 2418/2518 24005KT P6SM FEW050 BKN100
     FM250100 22003KT P6SM FEW050 SCT150
     FM250800 23003KT P6SM BKN050
     FM251600 24004KT P6SM SCT050 BKN120=

Latest METAR

893
SAUS80 KWBC 250900 RRC
MTRTYS
METAR KTYS 250853Z 00000KT 10SM FEW250 22/21 A3018 RMK AO2 SLP207
T02220206 53006


USA.gov is the U.S. government's official web portal to all federal, state and local government web resources and services.